createdAt,value
2019-04-04T00:01:20.827Z,1.70
2019-04-04T00:03:47.380Z,1.93
2019-04-04T00:06:14.024Z,1.90
2019-04-04T00:08:40.569Z,1.83
2019-04-04T00:11:07.113Z,1.80
2019-04-04T00:13:33.750Z,1.83
2019-04-04T00:16:00.619Z,1.77
2019-04-04T00:18:27.401Z,1.53
2019-04-04T00:20:54.706Z,1.70
2019-04-04T00:23:21.345Z,1.90
2019-04-04T00:25:47.885Z,1.63
2019-04-04T00:28:15.065Z,1.67
2019-04-04T00:30:42.185Z,1.60
2019-04-04T00:33:08.844Z,1.70
2019-04-04T00:35:35.477Z,1.80
2019-04-04T00:38:02.212Z,1.70
2019-04-04T00:40:28.883Z,1.70
2019-04-04T00:42:55.528Z,1.20
2019-04-04T00:45:22.496Z,1.43
2019-04-04T00:47:49.065Z,1.40
2019-04-04T00:50:15.822Z,1.40
2019-04-04T00:52:42.480Z,1.43
2019-04-04T00:55:09.228Z,1.50
2019-04-04T00:57:35.881Z,1.40
2019-04-04T01:00:02.641Z,1.30
2019-04-04T01:02:29.313Z,1.40
2019-04-04T01:04:55.843Z,1.50
2019-04-04T01:07:22.755Z,1.00
2019-04-04T01:09:49.321Z,1.50
2019-04-04T01:12:15.933Z,1.13
2019-04-04T01:14:42.556Z,1.27
2019-04-04T01:17:09.285Z,1.37
2019-04-04T01:19:36.065Z,1.00
2019-04-04T01:22:02.759Z,1.00
2019-04-04T01:24:29.958Z,1.63
2019-04-04T01:26:56.815Z,1.20
2019-04-04T01:29:23.589Z,1.40
2019-04-04T01:31:50.153Z,1.30
2019-04-04T01:34:16.713Z,1.67
2019-04-04T01:36:43.382Z,1.30
2019-04-04T01:39:11.960Z,1.40
2019-04-04T01:41:38.763Z,1.50
2019-04-04T01:44:05.677Z,1.60
2019-04-04T01:46:32.441Z,1.57
2019-04-04T01:48:59.108Z,1.47
2019-04-04T01:51:26.115Z,1.50
2019-04-04T01:53:52.883Z,1.30
2019-04-04T01:56:19.650Z,1.60
2019-04-04T01:58:46.464Z,1.20
2019-04-04T02:01:16.240Z,1.40
2019-04-04T02:03:41.765Z,1.70
2019-04-04T02:06:08.519Z,1.73
2019-04-04T02:08:35.289Z,1.60
2019-04-04T02:11:02.035Z,2.03
2019-04-04T02:13:28.816Z,1.70
2019-04-04T02:15:55.536Z,1.83
2019-04-04T02:18:23.602Z,1.50
2019-04-04T02:20:50.852Z,2.07
2019-04-04T02:23:17.560Z,1.87
2019-04-04T02:25:44.463Z,2.20
2019-04-04T02:28:11.124Z,2.90
2019-04-04T02:30:37.811Z,3.03
2019-04-04T02:33:04.603Z,2.43
2019-04-04T02:35:31.381Z,2.27
2019-04-04T02:37:58.195Z,2.57
2019-04-04T02:40:24.877Z,2.43
2019-04-04T02:42:55.261Z,2.57
2019-04-04T02:45:20.339Z,3.17
2019-04-04T02:47:50.308Z,3.67
2019-04-04T02:50:15.806Z,3.33
2019-04-04T02:52:45.720Z,3.30
2019-04-04T02:55:11.404Z,3.60
2019-04-04T02:57:41.173Z,3.30
2019-04-04T03:00:06.881Z,3.80
2019-04-04T03:02:36.185Z,3.47
2019-04-04T03:05:02.740Z,3.73
2019-04-04T03:07:30.989Z,3.67
2019-04-04T03:09:58.130Z,3.83
2019-04-04T03:12:26.342Z,3.97
2019-04-04T03:14:53.788Z,3.40
2019-04-04T03:17:20.559Z,3.60
2019-04-04T03:19:47.426Z,3.73
2019-04-04T03:22:15.335Z,3.77
2019-04-04T03:24:44.720Z,3.80
2019-04-04T03:27:10.867Z,3.30
2019-04-04T03:29:38.441Z,4.00
2019-04-04T03:32:05.207Z,3.73
2019-04-04T03:34:31.949Z,3.97
2019-04-04T03:36:58.732Z,4.00
2019-04-04T03:39:25.499Z,4.70
2019-04-04T03:41:52.283Z,4.87
2019-04-04T03:44:19.896Z,4.37
2019-04-04T03:46:47.631Z,4.40
2019-04-04T03:49:16.461Z,5.00
2019-04-04T03:51:44.424Z,5.20
2019-04-04T03:54:14.394Z,4.83
2019-04-04T03:56:41.078Z,4.20
2019-04-04T03:59:07.757Z,4.43
2019-04-04T04:01:34.618Z,4.67
2019-04-04T04:04:01.308Z,6.43
2019-04-04T04:06:28.169Z,6.20
2019-04-04T04:08:55.442Z,5.67
2019-04-04T04:11:22.218Z,5.80
2019-04-04T04:13:50.054Z,5.20
2019-04-04T04:16:16.906Z,5.33
2019-04-04T04:18:43.711Z,4.97
2019-04-04T04:21:11.330Z,4.60
2019-04-04T04:23:38.239Z,6.23
2019-04-04T04:26:08.035Z,6.17
2019-04-04T04:28:34.031Z,5.47
2019-04-04T04:31:00.876Z,4.70
2019-04-04T04:33:29.371Z,5.53
2019-04-04T04:35:56.297Z,6.57
2019-04-04T04:38:25.187Z,5.77
2019-04-04T04:40:51.580Z,6.30
2019-04-04T04:43:18.343Z,6.37
2019-04-04T04:45:45.558Z,6.23
2019-04-04T04:48:12.412Z,5.97
2019-04-04T04:50:40.484Z,5.40
2019-04-04T04:53:08.938Z,5.47
2019-04-04T04:55:36.010Z,6.23
2019-04-04T04:58:03.025Z,6.10
2019-04-04T05:00:30.101Z,6.80
2019-04-04T05:02:56.847Z,5.87
2019-04-04T05:05:24.746Z,6.93
2019-04-04T05:07:54.666Z,6.53
2019-04-04T05:10:21.634Z,6.90
2019-04-04T05:12:48.466Z,6.30
2019-04-04T05:15:15.194Z,6.40
2019-04-04T05:17:42.597Z,6.80
2019-04-04T05:20:09.710Z,7.27
2019-04-04T05:22:39.672Z,7.17
2019-04-04T05:25:08.359Z,6.63
2019-04-04T05:27:35.109Z,7.93
2019-04-04T05:30:04.307Z,7.20
2019-04-04T05:32:31.360Z,7.60
2019-04-04T05:35:01.247Z,6.27
2019-04-04T05:37:28.718Z,7.80
2019-04-04T05:39:55.539Z,7.23
2019-04-04T05:42:22.315Z,7.53
2019-04-04T05:44:48.960Z,7.03
2019-04-04T05:47:15.896Z,7.37
2019-04-04T05:49:42.719Z,7.53
2019-04-04T05:52:09.511Z,6.57
2019-04-04T05:54:38.760Z,8.50
2019-04-04T05:57:04.914Z,7.70
2019-04-04T05:59:31.720Z,7.37
2019-04-04T06:01:58.594Z,6.80
2019-04-04T06:04:25.493Z,7.80
2019-04-04T06:06:55.335Z,7.00
2019-04-04T06:09:21.105Z,6.40
2019-04-04T06:11:48.728Z,7.33
2019-04-04T06:14:15.586Z,6.53
2019-04-04T06:16:42.312Z,7.40
2019-04-04T06:19:09.117Z,7.57
2019-04-04T06:21:35.992Z,6.77
2019-04-04T06:24:02.780Z,6.30
2019-04-04T06:26:29.559Z,7.43
2019-04-04T06:28:56.244Z,5.87
2019-04-04T06:31:26.259Z,5.97
2019-04-04T06:33:51.506Z,6.73
2019-04-04T06:36:18.363Z,5.37
2019-04-04T06:38:45.149Z,5.87
2019-04-04T06:41:11.926Z,6.27
2019-04-04T06:43:41.395Z,6.50
2019-04-04T06:46:07.059Z,6.10
2019-04-04T06:48:33.987Z,6.17
2019-04-04T06:51:00.684Z,5.23
2019-04-04T06:53:27.509Z,6.67
2019-04-04T06:55:54.176Z,6.00
2019-04-04T06:58:20.984Z,6.23
2019-04-04T07:00:50.019Z,5.93
2019-04-04T07:03:16.120Z,6.37
2019-04-04T07:05:42.968Z,6.57
2019-04-04T07:08:09.701Z,6.67
2019-04-04T07:10:36.499Z,6.20
2019-04-04T07:13:20.183Z,6.40
2019-04-04T07:15:32.222Z,5.97
2019-04-04T07:17:58.943Z,5.73
2019-04-04T07:20:28.206Z,5.83
2019-04-04T07:22:56.294Z,5.63
2019-04-04T07:25:23.203Z,4.87
2019-04-04T07:27:50.002Z,5.10
2019-04-04T07:30:16.801Z,5.40
2019-04-04T07:32:43.397Z,24.93
2019-04-04T07:35:10.180Z,6.20
2019-04-04T07:37:36.763Z,5.53
2019-04-04T07:40:04.653Z,5.23
2019-04-04T07:42:31.367Z,5.80
2019-04-04T07:44:58.054Z,4.93
2019-04-04T07:47:24.740Z,5.23
2019-04-04T07:49:53.221Z,5.80
2019-04-04T07:52:20.111Z,4.80
2019-04-04T07:54:46.894Z,4.77
2019-04-04T07:57:13.559Z,4.47
2019-04-04T07:59:40.251Z,4.10
2019-04-04T08:02:07.127Z,4.30
2019-04-04T08:04:33.901Z,4.17
2019-04-04T08:07:00.621Z,4.10
2019-04-04T08:09:27.293Z,3.83
2019-04-04T08:11:53.935Z,3.60
2019-04-04T08:14:21.859Z,3.70
2019-04-04T08:16:48.518Z,4.03
2019-04-04T08:19:15.291Z,4.40
2019-04-04T08:21:42.116Z,3.80
2019-04-04T08:24:08.772Z,3.80
2019-04-04T08:26:35.429Z,3.50
2019-04-04T08:29:02.202Z,3.50
2019-04-04T08:31:29.077Z,3.70
2019-04-04T08:33:55.724Z,3.60
2019-04-04T08:36:22.527Z,3.50
2019-04-04T08:38:49.104Z,4.00
2019-04-04T08:41:15.858Z,3.87
2019-04-04T08:43:42.667Z,3.27
2019-04-04T08:46:09.360Z,3.40
2019-04-04T08:48:36.123Z,4.17
2019-04-04T08:51:05.096Z,3.43
2019-04-04T08:53:39.950Z,3.77
2019-04-04T08:56:00.495Z,3.90
2019-04-04T08:58:27.183Z,4.00
2019-04-04T09:00:53.983Z,4.13
2019-04-04T09:03:20.834Z,3.70
2019-04-04T09:05:47.590Z,3.47
2019-04-04T09:08:14.473Z,3.67
2019-04-04T09:10:41.140Z,3.83
2019-04-04T09:13:07.800Z,5.00
2019-04-04T09:15:34.536Z,4.20
2019-04-04T09:18:01.329Z,3.63
2019-04-04T09:20:28.236Z,3.17
2019-04-04T09:22:55.287Z,3.03
2019-04-04T09:25:21.950Z,2.70
2019-04-04T09:27:48.606Z,3.00
2019-04-04T09:30:15.714Z,2.87
2019-04-04T09:32:42.648Z,2.70
2019-04-04T09:35:09.437Z,2.77
2019-04-04T09:37:36.343Z,2.87
2019-04-04T09:40:03.735Z,3.03
2019-04-04T09:42:30.396Z,2.60
2019-04-04T09:44:57.201Z,2.40
2019-04-04T09:47:23.852Z,2.27
2019-04-04T09:49:50.721Z,2.30
2019-04-04T09:52:17.416Z,2.40
2019-04-04T09:54:44.189Z,1.97
2019-04-04T09:57:10.878Z,1.80
2019-04-04T09:59:37.443Z,1.90
2019-04-04T10:02:04.360Z,2.37
2019-04-04T10:04:31.207Z,1.50
2019-04-04T10:06:58.163Z,1.53
2019-04-04T10:09:24.738Z,1.90
2019-04-04T10:11:51.453Z,1.70
2019-04-04T10:14:18.121Z,1.60
2019-04-04T10:16:44.952Z,1.90
2019-04-04T10:19:11.640Z,1.90
2019-04-04T10:21:38.477Z,1.90
2019-04-04T10:24:05.159Z,1.73
2019-04-04T10:26:31.839Z,1.83
2019-04-04T10:28:58.639Z,1.90
2019-04-04T10:31:25.483Z,1.83
2019-04-04T10:33:52.249Z,1.90
2019-04-04T10:36:18.927Z,1.80
2019-04-04T10:38:45.674Z,1.80
2019-04-04T10:41:12.393Z,2.30
2019-04-04T10:43:38.972Z,1.90
2019-04-04T10:46:05.748Z,1.60
2019-04-04T10:48:32.410Z,2.53
2019-04-04T10:50:59.384Z,1.90
2019-04-04T10:53:26.152Z,1.70
2019-04-04T10:55:52.959Z,2.00
2019-04-04T10:58:19.633Z,1.67
2019-04-04T11:00:46.500Z,1.80
2019-04-04T11:03:13.234Z,1.63
2019-04-04T11:05:40.021Z,2.30
2019-04-04T11:08:06.792Z,2.00
2019-04-04T11:10:33.467Z,2.10
2019-04-04T11:13:02.761Z,2.90
2019-04-04T11:15:28.961Z,2.87
2019-04-04T11:17:55.801Z,2.00
2019-04-04T11:20:22.606Z,2.07
2019-04-04T11:22:49.354Z,2.37
2019-04-04T11:25:16.132Z,1.90
2019-04-04T11:27:42.760Z,1.90
2019-04-04T11:30:09.864Z,1.57
2019-04-04T11:32:36.598Z,2.17
2019-04-04T11:35:04.019Z,2.13
2019-04-04T11:37:30.790Z,2.20
2019-04-04T11:39:57.460Z,2.17
2019-04-04T11:42:24.136Z,1.83
2019-04-04T11:44:51.007Z,1.90
2019-04-04T11:47:17.803Z,1.80
2019-04-04T11:49:44.757Z,1.77
2019-04-04T11:52:11.620Z,1.73
2019-04-04T11:54:57.832Z,1.93
2019-04-04T11:57:24.700Z,2.27
2019-04-04T11:59:52.042Z,1.70
2019-04-04T12:02:20.155Z,2.07
2019-04-04T12:04:46.828Z,1.80
2019-04-04T12:07:13.649Z,2.13
2019-04-04T12:09:40.559Z,2.00
2019-04-04T12:12:07.466Z,2.07
2019-04-04T12:14:34.143Z,2.77
2019-04-04T12:17:01.008Z,3.03
2019-04-04T12:19:27.907Z,2.93
2019-04-04T12:21:54.705Z,2.90
2019-04-04T12:24:21.472Z,2.30
2019-04-04T12:26:48.149Z,2.73
2019-04-04T12:29:14.911Z,3.10
2019-04-04T12:31:41.604Z,2.53
2019-04-04T12:34:08.314Z,2.93
2019-04-04T12:36:37.123Z,2.97
2019-04-04T12:39:05.982Z,3.13
2019-04-04T12:41:32.893Z,2.57
2019-04-04T12:43:59.590Z,2.57
2019-04-04T12:46:27.380Z,2.93
2019-04-04T12:48:54.042Z,3.07
2019-04-04T12:51:20.612Z,3.07
2019-04-04T12:53:47.641Z,3.13
2019-04-04T12:56:14.345Z,3.07
2019-04-04T12:58:41.152Z,2.73
2019-04-04T13:01:07.875Z,2.40
2019-04-04T13:03:34.421Z,3.07
2019-04-04T13:06:01.287Z,3.30
2019-04-04T13:08:30.470Z,3.20
2019-04-04T13:10:58.808Z,2.80
2019-04-04T13:13:25.478Z,3.10
2019-04-04T13:15:52.160Z,2.77
2019-04-04T13:18:18.835Z,2.90
2019-04-04T13:20:45.502Z,3.03
2019-04-04T13:23:12.310Z,2.63
2019-04-04T13:25:41.977Z,3.30
2019-04-04T13:28:11.118Z,3.03
2019-04-04T13:30:37.926Z,2.80
2019-04-04T13:33:04.691Z,2.87
2019-04-04T13:35:31.392Z,3.00
2019-04-04T13:37:58.044Z,2.83
2019-04-04T13:40:24.821Z,2.93
2019-04-04T13:42:52.956Z,2.93
2019-04-04T13:45:20.224Z,2.67
2019-04-04T13:47:46.977Z,2.50
2019-04-04T13:50:14.042Z,2.93
2019-04-04T13:52:40.879Z,2.40
2019-04-04T13:55:07.754Z,2.83
2019-04-04T13:57:35.968Z,2.67
2019-04-04T14:00:09.117Z,2.30
2019-04-04T14:02:42.200Z,2.47
2019-04-04T14:05:11.491Z,2.70
2019-04-04T14:07:39.594Z,2.50
2019-04-04T14:10:08.710Z,2.73
2019-04-04T14:12:35.705Z,2.50
2019-04-04T14:15:05.823Z,2.50
2019-04-04T14:17:32.743Z,2.63
2019-04-04T14:20:00.600Z,2.63
2019-04-04T14:22:29.348Z,3.10
2019-04-04T14:25:05.642Z,2.73
2019-04-04T14:27:32.737Z,2.60
2019-04-04T14:29:59.743Z,3.33
2019-04-04T14:32:26.658Z,2.87
2019-04-04T14:34:53.531Z,2.90
2019-04-04T14:37:20.337Z,3.13
2019-04-04T14:39:52.636Z,3.33
2019-04-04T14:42:19.535Z,3.30
2019-04-04T14:44:46.585Z,2.90
2019-04-04T14:47:17.088Z,3.63
2019-04-04T14:49:45.804Z,2.90
2019-04-04T14:52:19.530Z,3.30
2019-04-04T14:54:44.944Z,3.67
2019-04-04T14:57:11.716Z,3.70
2019-04-04T14:59:38.596Z,3.60
2019-04-04T15:02:05.444Z,3.53
2019-04-04T15:04:35.215Z,3.77
2019-04-04T15:07:05.335Z,3.80
2019-04-04T15:09:32.079Z,3.57
2019-04-04T15:11:58.885Z,3.50
2019-04-04T15:14:25.737Z,3.53
2019-04-04T15:16:52.485Z,3.60
2019-04-04T15:19:19.236Z,3.50
2019-04-04T15:21:46.031Z,3.87
2019-04-04T15:24:13.800Z,4.30
2019-04-04T15:26:40.502Z,3.87
2019-04-04T15:29:07.402Z,4.57
2019-04-04T15:31:34.093Z,5.50
2019-04-04T15:34:01.604Z,5.20
2019-04-04T15:36:28.407Z,5.40
2019-04-04T15:38:55.192Z,5.70
2019-04-04T15:41:22.080Z,5.83
2019-04-04T15:43:48.859Z,7.10
2019-04-04T15:46:15.636Z,8.13
2019-04-04T15:48:42.380Z,7.97
2019-04-04T15:51:09.099Z,7.80
2019-04-04T15:53:35.939Z,7.43
2019-04-04T15:56:02.645Z,7.53
2019-04-04T15:58:29.639Z,8.13
2019-04-04T16:00:56.486Z,7.03
2019-04-04T16:03:23.647Z,7.20
2019-04-04T16:05:50.643Z,8.17
2019-04-04T16:08:17.498Z,7.17
2019-04-04T16:10:44.403Z,7.43
2019-04-04T16:13:11.125Z,6.73
2019-04-04T16:15:37.847Z,7.33
2019-04-04T16:18:04.642Z,7.13
2019-04-04T16:20:31.465Z,6.53
2019-04-04T16:22:58.332Z,7.13
2019-04-04T16:25:25.186Z,6.10
2019-04-04T16:27:51.900Z,6.00
2019-04-04T16:30:18.681Z,6.17
2019-04-04T16:32:45.539Z,7.13
2019-04-04T16:35:12.373Z,6.53
2019-04-04T16:37:39.216Z,6.30
2019-04-04T16:40:09.216Z,6.50
2019-04-04T16:42:35.620Z,6.30
2019-04-04T16:45:02.801Z,6.50
2019-04-04T16:47:29.469Z,6.47
2019-04-04T16:49:56.173Z,6.33
2019-04-04T16:52:22.904Z,6.03
2019-04-04T16:54:53.588Z,6.00
2019-04-04T16:57:20.088Z,5.17
2019-04-04T16:59:46.757Z,6.03
2019-04-04T17:02:15.498Z,5.60
2019-04-04T17:04:42.132Z,5.57
2019-04-04T17:07:08.826Z,6.33
2019-04-04T17:09:35.516Z,5.37
2019-04-04T17:12:14.173Z,5.13
2019-04-04T17:14:33.117Z,5.30
2019-04-04T17:16:59.270Z,5.65
2019-04-04T17:19:26.086Z,5.10
2019-04-04T17:21:52.733Z,4.63
2019-04-04T17:24:19.451Z,4.97
2019-04-04T17:26:46.313Z,5.13
2019-04-04T17:29:13.166Z,4.17
2019-04-04T17:31:39.988Z,4.73
2019-04-04T17:34:06.888Z,4.47
2019-04-04T17:36:33.895Z,5.40
2019-04-04T17:39:00.646Z,4.63
2019-04-04T17:41:27.607Z,4.77
2019-04-04T17:43:54.382Z,4.80
2019-04-04T17:46:21.039Z,4.23
2019-04-04T17:48:48.372Z,3.93
2019-04-04T17:51:16.755Z,4.67
2019-04-04T17:53:43.592Z,4.50
2019-04-04T17:56:10.280Z,4.13
2019-04-04T17:58:37.076Z,3.90
2019-04-04T18:01:05.102Z,3.90
2019-04-04T18:03:31.862Z,4.23
2019-04-04T18:05:58.717Z,4.53
2019-04-04T18:08:25.400Z,4.37
2019-04-04T18:10:52.241Z,4.67
2019-04-04T18:13:19.119Z,3.93
2019-04-04T18:15:46.096Z,3.83
2019-04-04T18:18:12.764Z,3.50
2019-04-04T18:20:39.615Z,4.03
2019-04-04T18:23:06.491Z,4.47
2019-04-04T18:25:33.684Z,4.57
2019-04-04T18:28:01.611Z,4.50
2019-04-04T18:30:28.434Z,5.20
2019-04-04T18:32:55.610Z,4.53
2019-04-04T18:35:22.492Z,5.00
2019-04-04T18:37:49.583Z,4.10
2019-04-04T18:40:16.549Z,4.40
2019-04-04T18:42:53.065Z,5.60
2019-04-04T18:45:12.856Z,4.73
2019-04-04T18:47:39.662Z,4.37
2019-04-04T18:50:06.492Z,4.30
2019-04-04T18:52:33.310Z,4.77
2019-04-04T18:55:00.151Z,5.47
2019-04-04T18:57:26.834Z,5.40
2019-04-04T18:59:54.545Z,5.07
2019-04-04T19:02:21.404Z,5.50
2019-04-04T19:04:48.085Z,5.08
2019-04-04T19:07:14.880Z,5.00
2019-04-04T19:09:41.731Z,5.53
2019-04-04T19:12:08.472Z,5.57
2019-04-04T19:14:35.349Z,5.00
2019-04-04T19:17:02.244Z,5.20
2019-04-04T19:19:29.162Z,5.40
2019-04-04T19:21:55.960Z,5.47
2019-04-04T19:24:22.749Z,5.10
2019-04-04T19:26:49.521Z,5.07
2019-04-04T19:29:17.549Z,5.63
2019-04-04T19:31:44.483Z,5.30
2019-04-04T19:34:11.282Z,5.93
2019-04-04T19:36:44.026Z,5.43
2019-04-04T19:39:16.111Z,5.53
2019-04-04T19:41:42.897Z,5.97
2019-04-04T19:44:09.896Z,5.80
2019-04-04T19:46:37.469Z,5.27
2019-04-04T19:49:04.374Z,4.83
2019-04-04T19:51:31.210Z,5.70
2019-04-04T19:53:59.067Z,4.73
2019-04-04T19:56:26.009Z,5.13
2019-04-04T19:58:52.927Z,5.40
2019-04-04T20:01:19.693Z,5.23
2019-04-04T20:03:46.518Z,6.57
2019-04-04T20:06:13.397Z,4.87
2019-04-04T20:08:42.092Z,4.53
2019-04-04T20:11:09.865Z,4.83
2019-04-04T20:13:36.712Z,5.33
2019-04-04T20:16:03.579Z,4.60
2019-04-04T20:18:30.400Z,4.20
2019-04-04T20:20:57.236Z,4.80
2019-04-04T20:23:24.027Z,4.83
2019-04-04T20:25:51.008Z,4.60
2019-04-04T20:28:17.859Z,4.53
2019-04-04T20:30:44.638Z,4.30
2019-04-04T20:33:13.398Z,3.73
2019-04-04T20:35:40.225Z,4.67
2019-04-04T20:38:07.024Z,3.93
2019-04-04T20:40:35.906Z,3.60
2019-04-04T20:43:02.791Z,4.07
2019-04-04T20:45:29.629Z,4.23
2019-04-04T20:47:56.406Z,4.13
2019-04-04T20:50:23.165Z,3.73
2019-04-04T20:52:50.067Z,4.47
2019-04-04T20:55:16.835Z,4.10
2019-04-04T20:57:43.661Z,4.63
2019-04-04T21:00:10.718Z,4.40
2019-04-04T21:02:37.485Z,3.90
2019-04-04T21:05:04.544Z,3.93
2019-04-04T21:07:34.495Z,3.67
2019-04-04T21:10:01.289Z,4.30
2019-04-04T21:12:28.048Z,4.47
2019-04-04T21:14:54.848Z,4.13
2019-04-04T21:17:21.626Z,4.43
2019-04-04T21:19:48.392Z,3.87
2019-04-04T21:22:27.021Z,4.57
2019-04-04T21:24:44.200Z,4.23
2019-04-04T21:27:11.074Z,4.13
2019-04-04T21:29:37.927Z,4.00
2019-04-04T21:32:04.691Z,4.27
2019-04-04T21:34:31.639Z,3.97
2019-04-04T21:36:58.387Z,4.10
2019-04-04T21:39:26.132Z,4.43
2019-04-04T21:41:53.094Z,4.00
2019-04-04T21:44:19.836Z,4.27
2019-04-04T21:46:46.755Z,3.90
2019-04-04T21:49:13.512Z,4.07
2019-04-04T21:51:40.285Z,4.03
2019-04-04T21:54:06.974Z,3.77
2019-04-04T21:56:33.643Z,4.43
2019-04-04T21:59:00.363Z,4.67
2019-04-04T22:01:27.058Z,4.83
2019-04-04T22:03:55.668Z,4.80
2019-04-04T22:06:22.551Z,5.70
2019-04-04T22:08:49.241Z,4.43
2019-04-04T22:11:16.040Z,5.17
2019-04-04T22:13:42.717Z,5.03
2019-04-04T22:16:09.523Z,4.90
2019-04-04T22:18:36.450Z,5.50
2019-04-04T22:21:03.250Z,4.90
2019-04-04T22:23:29.892Z,4.87
2019-04-04T22:25:56.554Z,4.53
2019-04-04T22:28:23.389Z,4.47
2019-04-04T22:30:50.100Z,5.17
2019-04-04T22:33:16.798Z,4.80
2019-04-04T22:35:43.656Z,4.90
2019-04-04T22:38:10.391Z,4.60
2019-04-04T22:40:37.302Z,4.63
2019-04-04T22:43:04.118Z,4.90
2019-04-04T22:45:30.848Z,5.23
2019-04-04T22:47:57.641Z,5.60
2019-04-04T22:50:24.473Z,4.80
2019-04-04T22:52:52.347Z,5.97
2019-04-04T22:55:19.120Z,4.57
2019-04-04T22:57:45.839Z,5.40
2019-04-04T23:00:13.084Z,4.40
2019-04-04T23:02:39.895Z,5.30
2019-04-04T23:05:06.985Z,4.87
2019-04-04T23:07:33.777Z,4.33
2019-04-04T23:10:00.562Z,5.27
2019-04-04T23:12:27.338Z,5.10
2019-04-04T23:14:54.035Z,5.27
2019-04-04T23:17:21.732Z,4.77
2019-04-04T23:19:48.443Z,5.47
2019-04-04T23:22:15.116Z,5.33
2019-04-04T23:24:41.816Z,5.23
2019-04-04T23:27:08.504Z,4.50
2019-04-04T23:29:35.429Z,5.20
2019-04-04T23:32:02.010Z,5.40
2019-04-04T23:34:28.786Z,5.60
2019-04-04T23:36:55.478Z,5.37
2019-04-04T23:39:23.213Z,5.27
2019-04-04T23:41:50.130Z,5.03
2019-04-04T23:44:16.796Z,5.07
2019-04-04T23:46:43.360Z,5.27
2019-04-04T23:49:10.271Z,5.37
2019-04-04T23:51:36.958Z,5.53
2019-04-04T23:54:03.950Z,5.17
2019-04-04T23:56:30.655Z,5.27
2019-04-04T23:58:57.335Z,5.53
